Nearby METAR Reports

 

KSFO - San Francisco, California, USA
Distance from station: NNW 8km
Updated: Fri, 23-Feb-2018 10:56am PST
Clear
Clear
 Wind from NNW
Wind: NNW 15 mph , 24 km/h
Temperature: 48°F , 9°C
Wind Chill: 42°F , 6°C
Dew Point: 25°F , -4°C
Humidity: 40%
Barometer: 30.40 inHg , 1029.5 hPa
Clouds: Clear
Visibility: 10 miles , 16 km
2018/02/23 18:56 KSFO 231856Z 34013KT 10SM CLR 09/M04 A3040 RMK AO2 SLP294 T00941044
KSQL - San Carlos Airpo, California, USA
Distance from station: ESE 8km
Updated: Fri, 23-Feb-2018 10:47am PST
Clear
Clear
 Wind from NW
Wind: NW 12 mph , 19 km/h
Temperature: 48°F , 9°C
Wind Chill: 43°F , 6°C
Dew Point: 21°F , -6°C
Humidity: 34%
Barometer: 30.40 inHg , 1029.5 hPa
Clouds: Clear
Visibility: 10 miles , 16 km
2018/02/23 18:47 KSQL 231847Z 32010KT 10SM SKC 09/M06 A3040
 
KHAF - Half Moon Bay, California, USA
Distance from station: WSW 15km
Updated: Fri, 23-Feb-2018 11:35am PST
Clear
Clear
 Wind from NW
Wind: NW 15 mph , 24 km/h
Temperature: 48°F , 9°C
Wind Chill: 42°F , 6°C
Dew Point: 28°F , -2°C
Humidity: 46%
Barometer: 30.37 inHg , 1028.4 hPa
Clouds: Clear
Visibility: 10 miles , 16 km
2018/02/23 19:35 KHAF 231935Z AUTO 31013KT 10SM CLR 09/M02 A3037 RMK AO2
KOAK - Oakland, California, USA
Distance from station: NNE 21km
Updated: Fri, 23-Feb-2018 10:53am PST
Clear
Clear
 Wind from N
Wind: N 12 mph , 19 km/h, Gust: 20 mph , 31 km/h
Temperature: 50°F , 10°C
Wind Chill: 45°F , 7°C
Dew Point: 19°F , -7°C
Humidity: 30%
Barometer: 30.40 inHg , 1029.5 hPa
Clouds: Clear
Visibility: 10 miles , 16 km
2018/02/23 18:53 KOAK 231853Z 01010G17KT 10SM CLR 10/M07 A3040 RMK AO2 SLP294 T01001072
 
KPAO - Palo Alto, California, USA
Distance from station: ESE 21km
Updated: Thu, 22-Feb-2018 3:47pm PST
NOT Current
Mostly cloudy
Mostly cloudy
 Wind from WNW
Wind: WNW 23 mph , 37 km/h
Temperature: 63°F , 17°C
Dew Point: 46°F , 8°C
Humidity: 56%
Barometer: 30.19 inHg , 1022.4 hPa
Clouds: Mostly cloudy
Visibility: 10 miles , 16 km
Cloud details: Mostly cloudy 3500 ft
Mostly cloudy 5000 ft
2018/02/22 23:47 KPAO 222347Z 29020KT 10SM BKN035 BKN050 17/08 A3019
KHWD - Hayward, California, USA
Distance from station: NE 23km
Updated: Fri, 23-Feb-2018 10:54am PST
Clear
Clear
 Wind from N
Wind: N 9 mph , 15 km/h
Temperature: 50°F , 10°C
Wind Chill: 46°F , 8°C
Dew Point: 18°F , -8°C
Humidity: 28%
Barometer: 30.39 inHg , 1029.1 hPa
Clouds: Clear
Visibility: 10 miles , 16 km
2018/02/23 18:54 KHWD 231854Z 35008KT 10SM CLR 10/M08 A3039 RMK AO2 SLP302 T01001078
 
KNUQ - Moffett Nas/Mtn, California, USA
Distance from station: ESE 30km
Updated: Fri, 23-Feb-2018 10:56am PST
Clear
Clear
 Wind from WNW
Wind: WNW 9 mph , 15 km/h
Temperature: 48°F , 9°C
Wind Chill: 44°F , 7°C
Dew Point: 23°F , -5°C
Humidity: 37%
Barometer: 30.40 inHg , 1029.5 hPa
Clouds: Clear
Visibility: 10 miles , 16 km
2018/02/23 18:56 KNUQ 231856Z AUTO 30008KT 10SM CLR 09/M05 A3040 RMK AO2 SLP296 T00941050
KSJC - San Jose, California, USA
Distance from station: ESE 42km
Updated: Fri, 23-Feb-2018 10:53am PST
Few Clouds
Few Clouds
 Wind from WNW
Wind: WNW 15 mph , 24 km/h
Temperature: 50°F , 10°C
Wind Chill: 45°F , 7°C
Dew Point: 21°F , -6°C
Humidity: 32%
Barometer: 30.38 inHg , 1028.8 hPa
Clouds: Few Clouds
Visibility: 10 miles , 16 km
Cloud details: Few Clouds 200 ft
2018/02/23 18:53 KSJC 231853Z 30013KT 10SM FEW002 10/M06 A3038 RMK AO2 SLP288 FU FEW002 T01001056 $
 
KLVK - Livermore, California, USA
Distance from station: ENE 49km
Updated: Fri, 23-Feb-2018 10:53am PST
Clear
Clear
 Wind from N
Wind: N 14 mph , 22 km/h, Gust: 20 mph , 31 km/h
Temperature: 48°F , 9°C
Wind Chill: 42°F , 6°C
Dew Point: 19°F , -7°C
Humidity: 32%
Barometer: 30.37 inHg , 1028.4 hPa
Clouds: Clear
Visibility: 10 miles , 16 km
2018/02/23 18:53 KLVK 231853Z 36012G17KT 10SM CLR 09/M07 A3037 RMK AO2 SLP285 T00891067
KRHV - San Jose/Reid, California, USA
Distance from station: ESE 53km
Updated: Fri, 23-Feb-2018 10:47am PST
Clear
Clear
 Wind from N
Wind: N 12 mph , 19 km/h
Temperature: 50°F , 10°C
Wind Chill: 45°F , 7°C
Dew Point: 19°F , -7°C
Humidity: 30%
Barometer: 30.36 inHg , 1028.1 hPa
Clouds: Clear
Visibility: 10 miles , 16 km
2018/02/23 18:47 KRHV 231847Z 01010KT 10SM SKC 10/M07 A3036
 
KCCR - Concord, California, USA
Distance from station: NNE 56km
Updated: Fri, 23-Feb-2018 10:53am PST
Clear
Clear
 Wind from N
Wind: N 12 mph , 19 km/h
Temperature: 50°F , 10°C
Wind Chill: 45°F , 7°C
Dew Point: 21°F , -6°C
Humidity: 32%
Barometer: 30.40 inHg , 1029.5 hPa
Clouds: Clear
Visibility: 10 miles , 16 km
2018/02/23 18:53 KCCR 231853Z 35010KT 10SM CLR 10/M06 A3040 RMK AO2 SLP280 T01001056
KDVO - Novato/Gnoss Fld, California, USA
Distance from station: NNW 70km
Updated: Fri, 23-Feb-2018 11:35am PST
Clear
Clear
 Wind from varies
Wind: varies 5 mph , 7 km/h, Gust: 12 mph , 19 km/h
Temperature: 52°F , 11°C
Dew Point: 21°F , -6°C
Humidity: 30%
Barometer: 30.39 inHg , 1029.1 hPa
Clouds: Clear
Visibility: 10 miles , 16 km
2018/02/23 19:35 KDVO 231935Z AUTO VRB04G10KT 10SM CLR 11/M06 A3039 RMK AO2
 
KAPC - Napa, California, USA
Distance from station: N 73km
Updated: Fri, 23-Feb-2018 10:54am PST
Clear
Clear
 Wind from NNW
Wind: NNW 15 mph , 24 km/h
Temperature: 50°F , 10°C
Wind Chill: 45°F , 7°C
Dew Point: 19°F , -7°C
Humidity: 30%
Barometer: 30.39 inHg , 1029.1 hPa
Clouds: Clear
Visibility: 10 miles , 16 km
2018/02/23 18:54 KAPC 231854Z 33013KT 10SM CLR 10/M07 A3039 RMK AO2 SLP283 T01001067